sensor_id;sensor_type;location;lat;lon;timestamp;pressure;altitude;pressure_sealevel;temperature;humidity
59519;BME280;46994;54.976;73.404;2022-08-01T00:02:17;99360.63;;;18.52;83.11
59519;BME280;46994;54.976;73.404;2022-08-01T00:04:43;99375.03;;;18.53;83.28
59519;BME280;46994;54.976;73.404;2022-08-01T00:07:10;99375.84;;;18.53;83.35
59519;BME280;46994;54.976;73.404;2022-08-01T00:09:37;99352.25;;;18.37;83.40
59519;BME280;46994;54.976;73.404;2022-08-01T00:12:04;99354.66;;;18.33;83.48
59519;BME280;46994;54.976;73.404;2022-08-01T00:14:31;99350.81;;;18.29;83.70
59519;BME280;46994;54.976;73.404;2022-08-01T00:16:58;99382.25;;;18.47;83.77
59519;BME280;46994;54.976;73.404;2022-08-01T00:19:24;99370.44;;;18.37;83.58
59519;BME280;46994;54.976;73.404;2022-08-01T00:21:51;99365.00;;;18.37;83.35
59519;BME280;46994;54.976;73.404;2022-08-01T00:24:18;99387.47;;;18.49;83.77
59519;BME280;46994;54.976;73.404;2022-08-01T00:26:45;99379.06;;;18.50;83.59
59519;BME280;46994;54.976;73.404;2022-08-01T00:29:11;99380.97;;;18.50;83.63
59519;BME280;46994;54.976;73.404;2022-08-01T00:31:38;99377.72;;;18.53;83.66
59519;BME280;46994;54.976;73.404;2022-08-01T00:34:05;99363.50;;;18.46;83.66
59519;BME280;46994;54.976;73.404;2022-08-01T00:36:31;99373.03;;;18.48;83.54
59519;BME280;46994;54.976;73.404;2022-08-01T00:38:58;99389.53;;;18.63;83.48
59519;BME280;46994;54.976;73.404;2022-08-01T00:41:25;99383.91;;;18.65;83.28
59519;BME280;46994;54.976;73.404;2022-08-01T00:43:52;99381.25;;;18.70;83.12
59519;BME280;46994;54.976;73.404;2022-08-01T00:46:18;99364.41;;;18.68;83.03
59519;BME280;46994;54.976;73.404;2022-08-01T00:48:45;99373.19;;;18.75;82.58
59519;BME280;46994;54.976;73.404;2022-08-01T00:51:13;99369.22;;;18.83;82.29
59519;BME280;46994;54.976;73.404;2022-08-01T00:53:39;99397.19;;;19.05;81.95
59519;BME280;46994;54.976;73.404;2022-08-01T00:56:07;99386.19;;;18.95;81.65
59519;BME280;46994;54.976;73.404;2022-08-01T00:58:34;99383.56;;;19.00;81.58
59519;BME280;46994;54.976;73.404;2022-08-01T01:01:01;99396.44;;;19.10;81.60
59519;BME280;46994;54.976;73.404;2022-08-01T01:03:27;99369.72;;;19.02;81.34
59519;BME280;46994;54.976;73.404;2022-08-01T01:08:48;99401.47;;;19.23;81.25
59519;BME280;46994;54.976;73.404;2022-08-01T01:11:25;99418.97;;;19.32;81.08
59519;BME280;46994;54.976;73.404;2022-08-01T01:14:02;99407.84;;;19.34;81.13
59519;BME280;46994;54.976;73.404;2022-08-01T01:16:31;99407.03;;;19.33;81.01
59519;BME280;46994;54.976;73.404;2022-08-01T01:19:01;99388.44;;;19.25;80.75
59519;BME280;46994;54.976;73.404;2022-08-01T01:29:59;99414.56;;;19.53;80.22
59519;BME280;46994;54.976;73.404;2022-08-01T01:32:38;99396.81;;;19.45;80.02
59519;BME280;46994;54.976;73.404;2022-08-01T01:35:09;99423.13;;;19.62;80.02
59519;BME280;46994;54.976;73.404;2022-08-01T01:37:38;99402.47;;;19.61;79.79
59519;BME280;46994;54.976;73.404;2022-08-01T01:40:07;99427.31;;;19.74;79.53
59519;BME280;46994;54.976;73.404;2022-08-01T01:42:36;99418.91;;;19.76;79.47
59519;BME280;46994;54.976;73.404;2022-08-01T01:45:24;99416.81;;;19.83;79.13
59519;BME280;46994;54.976;73.404;2022-08-01T01:47:52;99397.75;;;19.78;78.89
59519;BME280;46994;54.976;73.404;2022-08-01T01:50:21;99422.41;;;19.98;78.65
59519;BME280;46994;54.976;73.404;2022-08-01T01:52:51;99425.16;;;20.03;78.79
59519;BME280;46994;54.976;73.404;2022-08-01T01:55:21;99424.13;;;20.10;78.48
59519;BME280;46994;54.976;73.404;2022-08-01T01:57:51;99401.50;;;20.04;78.19
59519;BME280;46994;54.976;73.404;2022-08-01T02:00:19;99408.34;;;20.12;77.92
59519;BME280;46994;54.976;73.404;2022-08-01T02:02:46;99403.22;;;20.15;77.51
59519;BME280;46994;54.976;73.404;2022-08-01T02:05:13;99418.56;;;20.31;77.25
59519;BME280;46994;54.976;73.404;2022-08-01T02:07:41;99429.25;;;20.38;77.02
59519;BME280;46994;54.976;73.404;2022-08-01T02:10:10;99412.88;;;20.33;77.07
59519;BME280;46994;54.976;73.404;2022-08-01T02:12:39;99429.34;;;20.48;76.48
59519;BME280;46994;54.976;73.404;2022-08-01T02:15:09;99436.72;;;20.53;76.43
59519;BME280;46994;54.976;73.404;2022-08-01T02:17:41;99434.81;;;20.53;76.26
59519;BME280;46994;54.976;73.404;2022-08-01T02:20:10;99449.31;;;20.59;76.24
59519;BME280;46994;54.976;73.404;2022-08-01T02:22:42;99438.41;;;20.59;76.18
59519;BME280;46994;54.976;73.404;2022-08-01T02:25:22;99422.34;;;20.57;76.42
59519;BME280;46994;54.976;73.404;2022-08-01T02:28:03;99445.59;;;20.75;76.03
59519;BME280;46994;54.976;73.404;2022-08-01T02:30:33;99449.97;;;20.81;75.86
59519;BME280;46994;54.976;73.404;2022-08-01T02:35:47;99426.22;;;20.72;75.79
59519;BME280;46994;54.976;73.404;2022-08-01T02:38:15;99438.03;;;20.87;75.44
59519;BME280;46994;54.976;73.404;2022-08-01T02:40:46;99449.00;;;20.98;75.49
59519;BME280;46994;54.976;73.404;2022-08-01T02:43:18;99443.22;;;20.94;74.76
59519;BME280;46994;54.976;73.404;2022-08-01T02:45:47;99441.59;;;20.93;75.15
59519;BME280;46994;54.976;73.404;2022-08-01T02:48:17;99457.44;;;21.01;75.09
59519;BME280;46994;54.976;73.404;2022-08-01T02:50:47;99441.66;;;21.03;75.11
59519;BME280;46994;54.976;73.404;2022-08-01T02:53:18;99441.97;;;21.07;75.02
59519;BME280;46994;54.976;73.404;2022-08-01T02:55:46;99452.63;;;21.18;74.56
59519;BME280;46994;54.976;73.404;2022-08-01T02:58:18;99459.44;;;21.21;75.02
59519;BME280;46994;54.976;73.404;2022-08-01T03:00:47;99434.88;;;21.11;74.58
59519;BME280;46994;54.976;73.404;2022-08-01T03:03:15;99465.25;;;21.30;74.90
59519;BME280;46994;54.976;73.404;2022-08-01T03:05:43;99463.09;;;21.42;74.06
59519;BME280;46994;54.976;73.404;2022-08-01T03:08:11;99468.06;;;21.50;74.00
59519;BME280;46994;54.976;73.404;2022-08-01T03:10:41;99466.44;;;21.54;73.73
59519;BME280;46994;54.976;73.404;2022-08-01T03:13:09;99464.00;;;21.58;73.52
59519;BME280;46994;54.976;73.404;2022-08-01T03:15:39;99465.34;;;21.60;73.43
59519;BME280;46994;54.976;73.404;2022-08-01T03:18:08;99466.19;;;21.66;72.93
59519;BME280;46994;54.976;73.404;2022-08-01T03:20:35;99465.69;;;21.74;73.02
59519;BME280;46994;54.976;73.404;2022-08-01T03:23:07;99465.69;;;21.89;72.46
59519;BME280;46994;54.976;73.404;2022-08-01T03:25:38;99451.50;;;21.82;72.04
59519;BME280;46994;54.976;73.404;2022-08-01T03:28:06;99455.00;;;21.72;71.80
59519;BME280;46994;54.976;73.404;2022-08-01T03:30:35;99455.81;;;21.63;71.83
59519;BME280;46994;54.976;73.404;2022-08-01T03:33:03;99452.00;;;21.54;72.21
59519;BME280;46994;54.976;73.404;2022-08-01T03:35:33;99463.72;;;21.54;72.21
59519;BME280;46994;54.976;73.404;2022-08-01T03:38:02;99478.19;;;21.70;71.91
59519;BME280;46994;54.976;73.404;2022-08-01T03:40:40;99476.28;;;21.70;72.28
59519;BME280;46994;54.976;73.404;2022-08-01T03:43:32;99483.13;;;21.73;71.83
59519;BME280;46994;54.976;73.404;2022-08-01T03:46:05;99485.59;;;21.80;72.37
59519;BME280;46994;54.976;73.404;2022-08-01T03:48:39;99481.22;;;21.79;71.83
59519;BME280;46994;54.976;73.404;2022-08-01T03:51:07;99488.31;;;21.80;71.60
59519;BME280;46994;54.976;73.404;2022-08-01T03:53:35;99485.63;;;21.85;71.62
59519;BME280;46994;54.976;73.404;2022-08-01T03:56:04;99486.41;;;21.80;71.73
59519;BME280;46994;54.976;73.404;2022-08-01T03:58:36;99475.75;;;21.63;71.75
59519;BME280;46994;54.976;73.404;2022-08-01T04:01:06;99485.81;;;21.58;71.83
59519;BME280;46994;54.976;73.404;2022-08-01T04:03:36;99507.38;;;21.64;71.80
59519;BME280;46994;54.976;73.404;2022-08-01T04:06:07;99501.63;;;21.56;72.08
59519;BME280;46994;54.976;73.404;2022-08-01T04:08:36;99509.53;;;21.62;72.17
59519;BME280;46994;54.976;73.404;2022-08-01T04:11:03;99476.75;;;21.42;73.03
59519;BME280;46994;54.976;73.404;2022-08-01T04:13:31;99477.28;;;21.39;72.65
59519;BME280;46994;54.976;73.404;2022-08-01T04:15:59;99501.94;;;21.64;72.67
59519;BME280;46994;54.976;73.404;2022-08-01T04:18:26;99484.94;;;21.47;72.48
59519;BME280;46994;54.976;73.404;2022-08-01T04:20:53;99498.63;;;21.62;72.56
59519;BME280;46994;54.976;73.404;2022-08-01T04:23:22;99492.06;;;21.58;71.86
59519;BME280;46994;54.976;73.404;2022-08-01T04:25:52;99502.78;;;21.75;71.59
59519;BME280;46994;54.976;73.404;2022-08-01T04:28:20;99500.28;;;21.63;72.18
59519;BME280;46994;54.976;73.404;2022-08-01T04:30:50;99486.59;;;21.53;71.65
59519;BME280;46994;54.976;73.404;2022-08-01T04:33:19;99495.06;;;21.57;71.78
59519;BME280;46994;54.976;73.404;2022-08-01T04:35:47;99481.09;;;21.38;72.38
59519;BME280;46994;54.976;73.404;2022-08-01T04:38:20;99488.78;;;21.46;72.25
59519;BME280;46994;54.976;73.404;2022-08-01T04:43:34;99500.88;;;21.81;72.42
59519;BME280;46994;54.976;73.404;2022-08-01T04:46:02;99501.47;;;21.93;71.38
59519;BME280;46994;54.976;73.404;2022-08-01T04:48:31;99508.56;;;21.94;70.83
59519;BME280;46994;54.976;73.404;2022-08-01T04:50:59;99513.19;;;21.98;71.80
59519;BME280;46994;54.976;73.404;2022-08-01T04:53:26;99486.69;;;21.79;71.30
59519;BME280;46994;54.976;73.404;2022-08-01T04:55:54;99501.69;;;21.76;71.18
59519;BME280;46994;54.976;73.404;2022-08-01T04:58:20;99507.97;;;21.76;71.18
59519;BME280;46994;54.976;73.404;2022-08-01T05:00:47;99525.75;;;21.99;70.76
59519;BME280;46994;54.976;73.404;2022-08-01T05:03:14;99516.00;;;22.29;69.60
59519;BME280;46994;54.976;73.404;2022-08-01T05:05:41;99505.38;;;22.53;68.92
59519;BME280;46994;54.976;73.404;2022-08-01T05:08:08;99517.09;;;22.69;68.35
59519;BME280;46994;54.976;73.404;2022-08-01T05:10:34;99494.72;;;22.61;68.43
59519;BME280;46994;54.976;73.404;2022-08-01T05:13:01;99526.41;;;22.63;69.37
59519;BME280;46994;54.976;73.404;2022-08-01T05:15:28;99516.03;;;22.54;69.40
59519;BME280;46994;54.976;73.404;2022-08-01T05:17:55;99501.53;;;22.39;69.09
59519;BME280;46994;54.976;73.404;2022-08-01T05:20:22;99510.03;;;22.32;69.55
59519;BME280;46994;54.976;73.404;2022-08-01T05:22:49;99514.09;;;22.29;69.81
59519;BME280;46994;54.976;73.404;2022-08-01T05:25:16;99515.72;;;22.20;70.24
59519;BME280;46994;54.976;73.404;2022-08-01T05:27:43;99519.25;;;22.11;70.45
59519;BME280;46994;54.976;73.404;2022-08-01T05:30:10;99509.41;;;22.10;69.80
59519;BME280;46994;54.976;73.404;2022-08-01T05:32:37;99543.31;;;22.39;68.97
59519;BME280;46994;54.976;73.404;2022-08-01T05:35:05;99535.09;;;22.29;69.05
59519;BME280;46994;54.976;73.404;2022-08-01T05:37:32;99524.19;;;22.14;69.53
59519;BME280;46994;54.976;73.404;2022-08-01T05:39:59;99534.28;;;22.13;69.94
59519;BME280;46994;54.976;73.404;2022-08-01T05:42:25;99530.41;;;22.04;69.45
59519;BME280;46994;54.976;73.404;2022-08-01T05:44:52;99537.25;;;22.07;70.87
59519;BME280;46994;54.976;73.404;2022-08-01T05:47:19;99522.19;;;21.94;70.71
59519;BME280;46994;54.976;73.404;2022-08-01T05:49:46;99534.25;;;22.08;69.38
59519;BME280;46994;54.976;73.404;2022-08-01T05:52:13;99538.34;;;22.11;69.25
59519;BME280;46994;54.976;73.404;2022-08-01T05:54:40;99524.97;;;22.09;69.00
59519;BME280;46994;54.976;73.404;2022-08-01T05:57:07;99537.28;;;22.22;69.18
59519;BME280;46994;54.976;73.404;2022-08-01T05:59:33;99552.81;;;22.11;69.94
59519;BME280;46994;54.976;73.404;2022-08-01T06:02:08;99555.50;;;21.96;69.86
59519;BME280;46994;54.976;73.404;2022-08-01T06:04:38;99523.22;;;21.77;69.97
59519;BME280;46994;54.976;73.404;2022-08-01T06:07:05;99554.72;;;22.11;69.94
59519;BME280;46994;54.976;73.404;2022-08-01T06:09:32;99542.16;;;22.04;69.53
59519;BME280;46994;54.976;73.404;2022-08-01T06:11:59;99516.16;;;21.87;69.78
59519;BME280;46994;54.976;73.404;2022-08-01T06:14:25;99559.09;;;22.12;69.89
59519;BME280;46994;54.976;73.404;2022-08-01T06:16:52;99543.22;;;22.03;69.74
59519;BME280;46994;54.976;73.404;2022-08-01T06:19:19;99556.38;;;22.12;69.98
59519;BME280;46994;54.976;73.404;2022-08-01T06:21:46;99554.41;;;22.02;70.20
59519;BME280;46994;54.976;73.404;2022-08-01T06:24:14;99535.81;;;21.84;70.23
59519;BME280;46994;54.976;73.404;2022-08-01T06:26:41;99555.19;;;21.92;70.50
59519;BME280;46994;54.976;73.404;2022-08-01T06:29:08;99566.69;;;21.94;70.64
59519;BME280;46994;54.976;73.404;2022-08-01T06:31:34;99561.50;;;21.93;70.82
59519;BME280;46994;54.976;73.404;2022-08-01T06:34:01;99564.75;;;22.00;70.02
59519;BME280;46994;54.976;73.404;2022-08-01T06:36:28;99552.81;;;22.11;69.96
59519;BME280;46994;54.976;73.404;2022-08-01T06:38:54;99542.97;;;22.05;69.63
59519;BME280;46994;54.976;73.404;2022-08-01T06:41:21;99542.16;;;22.10;69.25
59519;BME280;46994;54.976;73.404;2022-08-01T06:43:48;99543.00;;;22.10;69.02
59519;BME280;46994;54.976;73.404;2022-08-01T06:46:15;99543.78;;;22.05;68.20
59519;BME280;46994;54.976;73.404;2022-08-01T06:48:42;99558.84;;;22.13;69.01
59519;BME280;46994;54.976;73.404;2022-08-01T06:51:09;99557.47;;;22.11;68.92
59519;BME280;46994;54.976;73.404;2022-08-01T06:53:36;99558.78;;;22.03;69.10
59519;BME280;46994;54.976;73.404;2022-08-01T06:56:05;99527.09;;;21.97;68.91
59519;BME280;46994;54.976;73.404;2022-08-01T06:58:32;99557.47;;;22.16;69.10
59519;BME280;46994;54.976;73.404;2022-08-01T07:01:01;99540.84;;;22.22;68.81
59519;BME280;46994;54.976;73.404;2022-08-01T07:03:28;99547.41;;;22.42;68.02
59519;BME280;46994;54.976;73.404;2022-08-01T07:05:56;99539.78;;;22.69;67.60
59519;BME280;46994;54.976;73.404;2022-08-01T07:08:23;99537.06;;;22.95;66.38
59519;BME280;46994;54.976;73.404;2022-08-01T07:10:50;99540.84;;;23.14;66.25
59519;BME280;46994;54.976;73.404;2022-08-01T07:13:17;99544.16;;;23.06;66.37
59519;BME280;46994;54.976;73.404;2022-08-01T07:15:47;99543.63;;;22.88;66.06
59519;BME280;46994;54.976;73.404;2022-08-01T07:18:14;99537.84;;;22.70;66.80
59519;BME280;46994;54.976;73.404;2022-08-01T07:20:41;99532.41;;;22.65;66.94
59519;BME280;46994;54.976;73.404;2022-08-01T07:23:08;99535.94;;;22.70;67.16
59519;BME280;46994;54.976;73.404;2022-08-01T07:25:35;99533.78;;;22.62;67.38
59519;BME280;46994;54.976;73.404;2022-08-01T07:28:06;99537.84;;;22.70;66.95
59519;BME280;46994;54.976;73.404;2022-08-01T07:30:36;99541.69;;;22.79;67.48
59519;BME280;46994;54.976;73.404;2022-08-01T07:33:07;99536.75;;;22.81;66.88
59519;BME280;46994;54.976;73.404;2022-08-01T07:35:39;99516.56;;;22.82;67.00
59519;BME280;46994;54.976;73.404;2022-08-01T07:38:10;99530.75;;;23.14;66.67
59519;BME280;46994;54.976;73.404;2022-08-01T07:40:43;99533.69;;;23.33;65.19
59519;BME280;46994;54.976;73.404;2022-08-01T07:43:16;99527.16;;;23.24;65.25
59519;BME280;46994;54.976;73.404;2022-08-01T07:45:43;99506.94;;;23.10;64.84
59519;BME280;46994;54.976;73.404;2022-08-01T07:48:10;99520.06;;;23.23;64.60
59519;BME280;46994;54.976;73.404;2022-08-01T07:50:37;99505.28;;;23.19;64.69
59519;BME280;46994;54.976;73.404;2022-08-01T07:53:04;99521.94;;;23.28;64.68
59519;BME280;46994;54.976;73.404;2022-08-01T07:55:30;99518.41;;;23.27;64.46
59519;BME280;46994;54.976;73.404;2022-08-01T07:57:57;99501.47;;;23.15;64.30
59519;BME280;46994;54.976;73.404;2022-08-01T08:00:38;99496.06;;;22.89;64.81
59519;BME280;46994;54.976;73.404;2022-08-01T08:03:52;99512.41;;;23.10;65.27
59519;BME280;46994;54.976;73.404;2022-08-01T08:06:25;99500.97;;;23.03;65.17
59519;BME280;46994;54.976;73.404;2022-08-01T08:08:52;99520.06;;;23.23;65.28
59519;BME280;46994;54.976;73.404;2022-08-01T08:11:20;99516.19;;;23.34;64.56
59519;BME280;46994;54.976;73.404;2022-08-01T08:13:52;99504.13;;;23.45;64.34
59519;BME280;46994;54.976;73.404;2022-08-01T08:16:22;99482.28;;;23.30;63.44
59519;BME280;46994;54.976;73.404;2022-08-01T08:18:49;99486.72;;;23.21;63.81
59519;BME280;46994;54.976;73.404;2022-08-01T08:21:15;99484.50;;;23.18;64.21
59519;BME280;46994;54.976;73.404;2022-08-01T08:23:43;99491.91;;;23.23;64.69
59519;BME280;46994;54.976;73.404;2022-08-01T08:26:28;99496.03;;;23.00;65.27
59519;BME280;46994;54.976;73.404;2022-08-01T08:28:55;99528.84;;;22.89;65.46
59519;BME280;46994;54.976;73.404;2022-08-01T08:31:22;99528.00;;;22.79;65.55
59519;BME280;46994;54.976;73.404;2022-08-01T08:33:48;99523.94;;;22.76;65.35
59519;BME280;46994;54.976;73.404;2022-08-01T08:36:15;99515.47;;;22.63;64.98
59519;BME280;46994;54.976;73.404;2022-08-01T08:38:42;99535.41;;;22.78;65.41
59519;BME280;46994;54.976;73.404;2022-08-01T08:41:09;99520.41;;;22.91;64.23
59519;BME280;46994;54.976;73.404;2022-08-01T08:43:36;99529.91;;;23.24;62.51
59519;BME280;46994;54.976;73.404;2022-08-01T08:46:09;99538.16;;;22.94;62.85
59519;BME280;46994;54.976;73.404;2022-08-01T08:49:02;99540.31;;;22.71;63.69
59519;BME280;46994;54.976;73.404;2022-08-01T08:51:42;99536.78;;;22.55;63.19
59519;BME280;46994;54.976;73.404;2022-08-01T08:54:13;99547.69;;;22.50;63.34
59519;BME280;46994;54.976;73.404;2022-08-01T08:56:45;99548.47;;;22.20;63.32
59519;BME280;46994;54.976;73.404;2022-08-01T08:59:16;99547.88;;;22.03;64.53
59519;BME280;46994;54.976;73.404;2022-08-01T09:01:44;99556.13;;;22.13;64.30
59519;BME280;46994;54.976;73.404;2022-08-01T09:04:12;99522.44;;;21.87;64.53
59519;BME280;46994;54.976;73.404;2022-08-01T09:06:40;99552.53;;;22.08;65.07
59519;BME280;46994;54.976;73.404;2022-08-01T09:09:32;99546.56;;;22.16;63.82
59519;BME280;46994;54.976;73.404;2022-08-01T09:12:00;99535.34;;;22.07;64.14
59519;BME280;46994;54.976;73.404;2022-08-01T09:14:27;99539.75;;;22.13;64.46
59519;BME280;46994;54.976;73.404;2022-08-01T09:17:04;99565.16;;;22.34;63.79
59519;BME280;46994;54.976;73.404;2022-08-01T09:19:41;99556.13;;;22.28;63.68
59519;BME280;46994;54.976;73.404;2022-08-01T09:22:14;99557.47;;;22.21;63.77
59519;BME280;46994;54.976;73.404;2022-08-01T09:27:28;99555.03;;;22.19;63.99
59519;BME280;46994;54.976;73.404;2022-08-01T09:30:13;99550.09;;;22.21;63.93
59519;BME280;46994;54.976;73.404;2022-08-01T09:33:12;99564.31;;;22.23;63.44
59519;BME280;46994;54.976;73.404;2022-08-01T09:35:39;99558.88;;;22.23;62.90
59519;BME280;46994;54.976;73.404;2022-08-01T09:38:22;99553.09;;;22.10;61.18
59519;BME280;46994;54.976;73.404;2022-08-01T09:40:59;99549.00;;;22.17;61.00
59519;BME280;46994;54.976;73.404;2022-08-01T09:43:29;99533.72;;;22.11;61.44
59519;BME280;46994;54.976;73.404;2022-08-01T09:45:56;99555.31;;;22.28;62.04
59519;BME280;46994;54.976;73.404;2022-08-01T09:48:24;99527.72;;;22.14;62.47
59519;BME280;46994;54.976;73.404;2022-08-01T09:50:52;99523.34;;;22.18;62.03
59519;BME280;46994;54.976;73.404;2022-08-01T09:53:19;99546.84;;;22.29;62.13
59519;BME280;46994;54.976;73.404;2022-08-01T09:55:46;99556.13;;;22.28;61.81
59519;BME280;46994;54.976;73.404;2022-08-01T09:58:13;99544.66;;;22.16;61.85
59519;BME280;46994;54.976;73.404;2022-08-01T10:00:40;99516.25;;;22.07;62.14
59519;BME280;46994;54.976;73.404;2022-08-01T10:03:25;99552.34;;;22.35;62.37
59519;BME280;46994;54.976;73.404;2022-08-01T10:05:52;99550.41;;;22.40;61.91
59519;BME280;46994;54.976;73.404;2022-08-01T10:08:23;99553.44;;;22.54;62.07
59519;BME280;46994;54.976;73.404;2022-08-01T10:11:09;99565.16;;;22.59;62.26
59519;BME280;46994;54.976;73.404;2022-08-01T10:13:36;99553.16;;;22.66;61.88
59519;BME280;46994;54.976;73.404;2022-08-01T10:16:05;99556.19;;;22.89;62.10
59519;BME280;46994;54.976;73.404;2022-08-01T10:18:34;99555.63;;;23.03;60.54
59519;BME280;46994;54.976;73.404;2022-08-01T10:21:03;99543.88;;;23.07;60.21
59519;BME280;46994;54.976;73.404;2022-08-01T10:23:35;99553.97;;;23.17;59.37
59519;BME280;46994;54.976;73.404;2022-08-01T10:26:02;99537.34;;;22.88;59.52
59519;BME280;46994;54.976;73.404;2022-08-01T10:28:31;99544.72;;;22.72;59.00
59519;BME280;46994;54.976;73.404;2022-08-01T10:31:01;99568.75;;;22.75;58.60
59519;BME280;46994;54.976;73.404;2022-08-01T10:33:29;99568.19;;;22.83;57.92
59519;BME280;46994;54.976;73.404;2022-08-01T10:35:57;99541.97;;;22.77;57.46
59519;BME280;46994;54.976;73.404;2022-08-01T10:38:25;99558.66;;;22.96;56.58
59519;BME280;46994;54.976;73.404;2022-08-01T10:40:55;99556.75;;;22.92;55.94
59519;BME280;46994;54.976;73.404;2022-08-01T10:43:23;99553.16;;;23.06;55.75
59519;BME280;46994;54.976;73.404;2022-08-01T10:45:50;99529.41;;;22.92;56.17
59519;BME280;46994;54.976;73.404;2022-08-01T10:48:22;99564.94;;;23.02;56.05
59519;BME280;46994;54.976;73.404;2022-08-01T10:50:52;99547.19;;;22.94;56.93
59519;BME280;46994;54.976;73.404;2022-08-01T10:53:26;99534.84;;;23.07;56.40
59519;BME280;46994;54.976;73.404;2022-08-01T10:58:28;99525.53;;;23.18;54.51
59519;BME280;46994;54.976;73.404;2022-08-01T11:01:21;99558.84;;;23.40;53.23
59519;BME280;46994;54.976;73.404;2022-08-01T11:06:27;99545.38;;;23.54;52.62
59519;BME280;46994;54.976;73.404;2022-08-01T11:08:55;99557.38;;;23.68;53.36
59519;BME280;46994;54.976;73.404;2022-08-01T11:11:24;99557.91;;;23.81;53.18
59519;BME280;46994;54.976;73.404;2022-08-01T11:14:02;99548.31;;;23.78;53.04
59519;BME280;46994;54.976;73.404;2022-08-01T11:16:40;99560.41;;;23.72;53.80
59519;BME280;46994;54.976;73.404;2022-08-01T11:19:07;99538.84;;;23.40;54.31
59519;BME280;46994;54.976;73.404;2022-08-01T11:27:32;99571.94;;;23.43;54.82
59519;BME280;46994;54.976;73.404;2022-08-01T11:32:48;99587.53;;;23.43;53.67
59519;BME280;46994;54.976;73.404;2022-08-01T11:35:15;99563.28;;;23.06;55.10
59519;BME280;46994;54.976;73.404;2022-08-01T11:37:42;99589.50;;;23.07;55.01
59519;BME280;46994;54.976;73.404;2022-08-01T11:40:29;99607.00;;;22.90;54.57
59519;BME280;46994;54.976;73.404;2022-08-01T11:43:17;99594.13;;;22.55;54.63
59519;BME280;46994;54.976;73.404;2022-08-01T11:45:52;99600.94;;;22.43;54.99
59519;BME280;46994;54.976;73.404;2022-08-01T11:48:25;99614.00;;;22.25;55.44
59519;BME280;46994;54.976;73.404;2022-08-01T11:50:54;99588.78;;;21.93;55.65
59519;BME280;46994;54.976;73.404;2022-08-01T11:53:21;99593.13;;;21.94;55.75
59519;BME280;46994;54.976;73.404;2022-08-01T11:55:51;99619.66;;;22.03;55.77
59519;BME280;46994;54.976;73.404;2022-08-01T11:58:26;99610.34;;;21.94;55.65
59519;BME280;46994;54.976;73.404;2022-08-01T12:00:54;99636.53;;;22.00;55.45
59519;BME280;46994;54.976;73.404;2022-08-01T12:03:39;99626.72;;;21.94;55.35
59519;BME280;46994;54.976;73.404;2022-08-01T12:06:05;99614.66;;;21.85;55.53
59519;BME280;46994;54.976;73.404;2022-08-01T12:08:33;99631.94;;;22.06;55.06
59519;BME280;46994;54.976;73.404;2022-08-01T12:11:02;99639.09;;;22.17;54.65
59519;BME280;46994;54.976;73.404;2022-08-01T12:13:40;99654.41;;;22.28;53.99
59519;BME280;46994;54.976;73.404;2022-08-01T12:16:08;99646.22;;;22.23;54.60
59519;BME280;46994;54.976;73.404;2022-08-01T12:18:40;99650.00;;;22.17;54.59
59519;BME280;46994;54.976;73.404;2022-08-01T12:21:07;99657.09;;;22.13;53.85
59519;BME280;46994;54.976;73.404;2022-08-01T12:23:34;99667.69;;;22.04;54.58
59519;BME280;46994;54.976;73.404;2022-08-01T12:26:01;99673.81;;;21.80;54.00
59519;BME280;46994;54.976;73.404;2022-08-01T12:28:30;99678.06;;;21.60;54.10
59519;BME280;46994;54.976;73.404;2022-08-01T12:30:57;99677.63;;;21.36;54.85
59519;BME280;46994;54.976;73.404;2022-08-01T12:33:23;99681.03;;;21.22;55.73
59519;BME280;46994;54.976;73.404;2022-08-01T12:35:51;99688.81;;;21.08;56.15
59519;BME280;46994;54.976;73.404;2022-08-01T12:38:21;99680.81;;;20.96;57.15
59519;BME280;46994;54.976;73.404;2022-08-01T12:40:56;99674.47;;;20.85;56.97
59519;BME280;46994;54.976;73.404;2022-08-01T12:43:23;99666.84;;;20.60;57.73
59519;BME280;46994;54.976;73.404;2022-08-01T12:45:53;99664.53;;;20.47;57.81
59519;BME280;46994;54.976;73.404;2022-08-01T12:48:20;99660.59;;;20.38;57.52
59519;BME280;46994;54.976;73.404;2022-08-01T12:50:49;99673.88;;;20.34;58.25
59519;BME280;46994;54.976;73.404;2022-08-01T12:53:18;99685.81;;;20.28;57.41
59519;BME280;46994;54.976;73.404;2022-08-01T12:55:55;99675.06;;;20.17;58.29
59519;BME280;46994;54.976;73.404;2022-08-01T12:58:22;99675.63;;;20.19;57.53
59519;BME280;46994;54.976;73.404;2022-08-01T13:00:50;99687.56;;;20.18;57.85
59519;BME280;46994;54.976;73.404;2022-08-01T13:03:28;99676.75;;;20.01;59.34
59519;BME280;46994;54.976;73.404;2022-08-01T13:05:56;99692.31;;;20.05;58.81
59519;BME280;46994;54.976;73.404;2022-08-01T13:08:29;99669.72;;;19.83;59.84
59519;BME280;46994;54.976;73.404;2022-08-01T13:11:12;99700.31;;;19.95;59.33
59519;BME280;46994;54.976;73.404;2022-08-01T13:13:44;99681.16;;;19.85;59.06
59519;BME280;46994;54.976;73.404;2022-08-01T13:16:16;99696.47;;;19.91;59.21
59519;BME280;46994;54.976;73.404;2022-08-01T13:18:51;99675.25;;;19.71;59.27
59519;BME280;46994;54.976;73.404;2022-08-01T13:21:19;99700.66;;;19.77;60.80
59519;BME280;46994;54.976;73.404;2022-08-01T13:24:07;99704.66;;;19.74;59.85
59519;BME280;46994;54.976;73.404;2022-08-01T13:26:59;99645.63;;;19.36;59.43
59519;BME280;46994;54.976;73.404;2022-08-01T13:29:37;99686.13;;;19.55;59.64
59519;BME280;46994;54.976;73.404;2022-08-01T13:34:41;99698.75;;;19.61;59.82
59519;BME280;46994;54.976;73.404;2022-08-01T13:37:07;99671.00;;;19.42;59.52
59519;BME280;46994;54.976;73.404;2022-08-01T13:39:34;99699.41;;;19.51;59.44
59519;BME280;46994;54.976;73.404;2022-08-01T13:42:14;99713.09;;;19.56;59.84